createdAt,value
2019-01-22T00:02:16.055Z,31.10
2019-01-22T00:04:44.514Z,29.17
2019-01-22T00:07:13.385Z,32.37
2019-01-22T00:09:42.018Z,30.40
2019-01-22T00:12:10.491Z,31.80
2019-01-22T00:14:38.987Z,29.73
2019-01-22T00:17:07.454Z,29.37
2019-01-22T00:19:35.916Z,29.90
2019-01-22T00:22:04.672Z,30.60
2019-01-22T00:24:33.323Z,29.60
2019-01-22T00:27:01.795Z,29.80
2019-01-22T00:29:30.293Z,27.17
2019-01-22T00:31:58.831Z,28.60
2019-01-22T00:34:27.294Z,29.53
2019-01-22T00:36:55.799Z,23.67
2019-01-22T00:39:24.267Z,28.97
2019-01-22T00:41:52.736Z,28.70
2019-01-22T00:44:21.243Z,28.80
2019-01-22T00:46:49.725Z,29.27
2019-01-22T00:49:18.190Z,30.80
2019-01-22T00:51:47.079Z,30.03
2019-01-22T00:54:15.537Z,30.50
2019-01-22T00:56:44.015Z,29.40
2019-01-22T00:59:12.499Z,30.03
2019-01-22T01:01:40.960Z,28.53
2019-01-22T01:04:09.421Z,29.17
2019-01-22T01:06:38.217Z,29.50
2019-01-22T01:09:08.181Z,30.60
2019-01-22T01:11:36.637Z,29.77
2019-01-22T01:14:05.720Z,27.80
2019-01-22T01:16:34.175Z,32.80
2019-01-22T01:19:02.647Z,32.00
2019-01-22T01:21:31.243Z,27.60
2019-01-22T01:23:59.711Z,29.33
2019-01-22T01:26:28.184Z,31.77
2019-01-22T01:28:56.683Z,28.67
2019-01-22T01:31:25.145Z,31.17
2019-01-22T01:33:53.617Z,29.43
2019-01-22T01:36:22.123Z,28.90
2019-01-22T01:38:50.590Z,27.60
2019-01-22T01:41:19.052Z,28.03
2019-01-22T01:43:47.555Z,31.67
2019-01-22T01:46:16.022Z,30.80
2019-01-22T01:48:44.491Z,26.07
2019-01-22T01:51:13.016Z,32.93
2019-01-22T01:53:41.480Z,26.80
2019-01-22T01:56:09.950Z,28.40
2019-01-22T01:58:38.444Z,24.97
2019-01-22T02:01:06.904Z,31.10
2019-01-22T02:03:35.366Z,28.83
2019-01-22T02:06:03.864Z,29.83
2019-01-22T02:08:32.321Z,30.30
2019-01-22T02:11:01.114Z,30.80
2019-01-22T02:13:29.949Z,27.40
2019-01-22T02:16:07.524Z,28.03
2019-01-22T02:18:51.257Z,29.07
2019-01-22T02:21:48.226Z,29.30
2019-01-22T02:24:31.505Z,28.60
2019-01-22T02:27:03.147Z,30.87
2019-01-22T02:29:54.340Z,29.67
2019-01-22T02:32:32.055Z,29.50
2019-01-22T02:35:03.750Z,30.73
2019-01-22T02:37:44.085Z,26.53
2019-01-22T02:40:21.685Z,29.83
2019-01-22T02:43:10.217Z,28.53
2019-01-22T02:45:56.507Z,30.10
2019-01-22T02:48:46.051Z,26.33
2019-01-22T02:51:23.437Z,25.40
2019-01-22T02:53:55.066Z,27.27
2019-01-22T02:56:38.804Z,31.50
2019-01-22T02:59:22.220Z,29.67
2019-01-22T03:02:05.818Z,27.80
2019-01-22T03:05:07.622Z,30.17
2019-01-22T03:08:00.101Z,30.53
2019-01-22T03:10:37.785Z,30.90
2019-01-22T03:13:12.532Z,30.20
2019-01-22T03:15:59.186Z,29.17
2019-01-22T03:18:45.373Z,29.23
2019-01-22T03:21:28.756Z,30.07
2019-01-22T03:24:03.331Z,29.50
2019-01-22T03:26:57.575Z,33.00
2019-01-22T03:29:34.779Z,32.23
2019-01-22T03:32:21.231Z,28.67
2019-01-22T03:35:18.156Z,29.30
2019-01-22T03:38:04.846Z,24.17
2019-01-22T03:40:56.133Z,27.47
2019-01-22T03:43:50.582Z,25.67
2019-01-22T03:46:31.267Z,25.63
2019-01-22T03:49:19.715Z,26.40
2019-01-22T03:51:54.081Z,27.30
2019-01-22T03:54:43.778Z,26.50
2019-01-22T03:57:33.593Z,25.17
2019-01-22T04:00:02.149Z,27.20
2019-01-22T04:02:31.154Z,26.13
2019-01-22T04:04:59.647Z,25.67
2019-01-22T04:07:28.489Z,23.63
2019-01-22T04:09:58.999Z,28.93
2019-01-22T04:12:27.527Z,28.97
2019-01-22T04:14:56.281Z,27.70
2019-01-22T04:17:24.756Z,27.73
2019-01-22T04:19:54.267Z,26.77
2019-01-22T04:22:25.902Z,26.13
2019-01-22T04:25:02.063Z,26.67
2019-01-22T04:27:36.682Z,25.37
2019-01-22T04:30:24.793Z,27.17
2019-01-22T04:33:01.954Z,25.70
2019-01-22T04:35:42.486Z,26.23
2019-01-22T04:38:17.054Z,26.13
2019-01-22T04:40:54.732Z,28.00
2019-01-22T04:43:37.672Z,26.40
2019-01-22T04:46:12.046Z,28.90
2019-01-22T04:48:55.288Z,27.10
2019-01-22T04:51:42.068Z,25.87
2019-01-22T04:54:16.212Z,26.60
2019-01-22T04:56:47.900Z,27.13
2019-01-22T04:59:52.979Z,26.73
2019-01-22T05:02:27.380Z,26.90
2019-01-22T05:05:17.078Z,25.37
2019-01-22T05:07:48.745Z,28.50
2019-01-22T05:10:38.717Z,29.67
2019-01-22T05:13:10.836Z,28.90
2019-01-22T05:15:45.583Z,28.20
2019-01-22T05:18:35.395Z,30.07
2019-01-22T05:21:31.666Z,25.23
2019-01-22T05:24:26.008Z,29.90
2019-01-22T05:27:16.182Z,26.60
2019-01-22T05:30:10.665Z,29.37
2019-01-22T05:33:03.619Z,22.23
2019-01-22T05:35:47.569Z,25.20
2019-01-22T05:38:34.591Z,26.43
2019-01-22T05:41:20.874Z,28.30
2019-01-22T05:44:09.283Z,25.10
2019-01-22T05:46:58.282Z,22.77
2019-01-22T05:49:38.937Z,25.00
2019-01-22T05:52:32.990Z,20.97
2019-01-22T05:55:13.277Z,23.97
2019-01-22T05:57:45.106Z,22.80
2019-01-22T06:00:31.859Z,25.00
2019-01-22T06:03:02.279Z,25.40
2019-01-22T06:05:49.041Z,21.90
2019-01-22T06:08:26.884Z,24.00
2019-01-22T06:11:04.350Z,22.90
2019-01-22T06:13:38.856Z,24.20
2019-01-22T06:16:16.253Z,25.93
2019-01-22T06:19:09.563Z,21.83
2019-01-22T06:21:43.694Z,22.17
2019-01-22T06:24:34.854Z,25.23
2019-01-22T06:27:09.256Z,21.57
2019-01-22T06:30:02.221Z,21.83
2019-01-22T06:32:33.857Z,23.30
2019-01-22T06:35:11.672Z,20.33
2019-01-22T06:38:03.221Z,25.17
2019-01-22T06:40:37.388Z,24.70
2019-01-22T06:43:28.682Z,24.97
2019-01-22T06:46:03.101Z,24.70
2019-01-22T06:48:37.519Z,25.30
2019-01-22T06:51:27.172Z,24.10
2019-01-22T06:54:07.648Z,24.60
2019-01-22T06:56:42.240Z,22.97
2019-01-22T06:59:16.372Z,24.97
2019-01-22T07:02:15.049Z,26.00
2019-01-22T07:04:46.706Z,24.20
2019-01-22T07:07:44.148Z,22.03
2019-01-22T07:10:30.637Z,21.70
2019-01-22T07:13:17.171Z,24.47
2019-01-22T07:16:12.336Z,23.47
2019-01-22T07:19:00.778Z,23.70
2019-01-22T07:21:38.820Z,23.53
2019-01-22T07:24:25.482Z,25.47
2019-01-22T07:27:02.937Z,24.13
2019-01-22T07:30:04.798Z,25.57
2019-01-22T07:32:42.156Z,24.50
2019-01-22T07:35:19.528Z,24.50
2019-01-22T07:37:51.159Z,24.07
2019-01-22T07:40:25.540Z,24.70
2019-01-22T07:43:15.079Z,27.57
2019-01-22T07:45:55.766Z,26.27
2019-01-22T07:48:27.396Z,26.80
2019-01-22T07:51:19.965Z,24.50
2019-01-22T07:54:09.857Z,26.53
2019-01-22T07:57:07.696Z,29.20
2019-01-22T07:59:39.327Z,29.50
2019-01-22T08:02:35.018Z,30.13
2019-01-22T08:05:10.766Z,29.83
2019-01-22T08:07:52.912Z,24.80
2019-01-22T08:10:45.287Z,25.97
2019-01-22T08:13:33.460Z,27.90
2019-01-22T08:16:41.566Z,26.73
2019-01-22T08:19:25.272Z,25.97
2019-01-22T08:22:13.571Z,28.57
2019-01-22T08:24:51.016Z,28.10
2019-01-22T08:27:30.335Z,29.83
2019-01-22T08:30:01.583Z,30.90
2019-01-22T08:32:38.971Z,32.23
2019-01-22T08:35:28.420Z,30.47
2019-01-22T08:38:21.001Z,29.97
2019-01-22T08:41:29.857Z,32.40
2019-01-22T08:44:03.987Z,31.37
2019-01-22T08:46:52.812Z,32.67
2019-01-22T08:49:36.476Z,32.73
2019-01-22T08:52:20.253Z,31.80
2019-01-22T08:55:09.785Z,36.20
2019-01-22T08:57:53.176Z,30.40
2019-01-22T09:00:30.490Z,31.43
2019-01-22T09:03:21.701Z,29.53
2019-01-22T09:05:59.251Z,29.00
2019-01-22T09:08:39.880Z,30.83
2019-01-22T09:11:17.270Z,31.03
2019-01-22T09:14:08.341Z,30.80
2019-01-22T09:16:51.816Z,31.67
2019-01-22T09:19:32.314Z,31.70
2019-01-22T09:22:32.797Z,31.10
2019-01-22T09:25:16.455Z,31.80
2019-01-22T09:27:48.093Z,28.70
2019-01-22T09:30:36.214Z,24.00
2019-01-22T09:33:07.862Z,25.47
2019-01-22T09:35:42.344Z,24.87
2019-01-22T09:38:11.442Z,23.10
2019-01-22T09:40:39.986Z,28.97
2019-01-22T09:43:09.213Z,26.10
2019-01-22T09:45:37.682Z,27.20
2019-01-22T09:48:06.152Z,27.07
2019-01-22T09:50:34.670Z,26.37
2019-01-22T09:53:03.135Z,25.17
2019-01-22T09:55:31.603Z,26.30
2019-01-22T09:58:00.119Z,28.80
2019-01-22T10:00:28.639Z,23.40
2019-01-22T10:02:57.102Z,23.83
2019-01-22T10:05:25.604Z,25.73
2019-01-22T10:07:54.074Z,25.60
2019-01-22T10:10:23.476Z,23.07
2019-01-22T10:12:51.970Z,23.53
2019-01-22T10:15:21.984Z,22.63
2019-01-22T10:17:50.517Z,23.50
2019-01-22T10:20:21.522Z,25.07
2019-01-22T10:22:50.520Z,28.73
2019-01-22T10:25:18.979Z,26.63
2019-01-22T10:27:47.703Z,25.33
2019-01-22T10:30:21.991Z,24.47
2019-01-22T10:32:50.473Z,22.37
2019-01-22T10:35:18.983Z,20.23
2019-01-22T10:37:47.451Z,22.63
2019-01-22T10:40:18.759Z,19.80
2019-01-22T10:42:47.266Z,18.97
2019-01-22T10:45:17.562Z,18.70
2019-01-22T10:47:46.093Z,18.90
2019-01-22T10:50:20.132Z,18.07
2019-01-22T10:52:48.604Z,18.77
2019-01-22T10:55:17.318Z,14.00
2019-01-22T10:57:45.913Z,15.53
2019-01-22T11:00:23.162Z,17.90
2019-01-22T11:02:51.649Z,16.60
2019-01-22T11:05:26.247Z,17.30
2019-01-22T11:07:54.711Z,16.83
2019-01-22T11:10:23.235Z,18.13
2019-01-22T11:12:51.695Z,16.40
2019-01-22T11:15:20.145Z,17.97
2019-01-22T11:17:48.634Z,17.90
2019-01-22T11:20:22.815Z,18.80
2019-01-22T11:22:51.274Z,19.60
2019-01-22T11:25:21.827Z,17.80
2019-01-22T11:27:50.297Z,17.77
2019-01-22T11:30:24.404Z,17.33
2019-01-22T11:32:52.897Z,16.10
2019-01-22T11:35:23.111Z,16.60
2019-01-22T11:37:52.210Z,16.57
2019-01-22T11:40:29.973Z,17.60
2019-01-22T11:42:58.441Z,19.23
2019-01-22T11:45:26.967Z,18.27
2019-01-22T11:47:55.465Z,19.40
2019-01-22T11:50:23.997Z,16.53
2019-01-22T11:52:52.524Z,17.07
2019-01-22T11:55:21.037Z,18.43
2019-01-22T11:57:49.491Z,18.03
2019-01-22T12:00:31.147Z,16.17
2019-01-22T12:02:59.598Z,15.40
2019-01-22T12:05:28.069Z,18.30
2019-01-22T12:07:56.572Z,19.50
2019-01-22T12:10:25.105Z,19.03
2019-01-22T12:12:53.573Z,20.50
2019-01-22T12:15:22.124Z,20.53
2019-01-22T12:17:50.570Z,17.80
2019-01-22T12:20:24.488Z,21.23
2019-01-22T12:22:53.003Z,20.93
2019-01-22T12:25:21.470Z,20.57
2019-01-22T12:27:49.934Z,21.20
2019-01-22T12:30:21.611Z,19.87
2019-01-22T12:32:51.123Z,19.07
2019-01-22T12:35:19.653Z,12.83
2019-01-22T12:37:48.257Z,18.70
2019-01-22T12:40:21.958Z,18.03
2019-01-22T12:42:50.498Z,15.50
2019-01-22T12:45:22.130Z,14.90
2019-01-22T12:47:50.624Z,13.50
2019-01-22T12:50:25.587Z,13.43
2019-01-22T12:52:51.774Z,14.47
2019-01-22T12:55:20.237Z,12.27
2019-01-22T12:57:48.705Z,13.47
2019-01-22T13:00:26.270Z,16.90
2019-01-22T13:02:54.795Z,15.40
2019-01-22T13:05:32.459Z,21.07
2019-01-22T13:08:00.937Z,18.67
2019-01-22T13:10:29.426Z,17.80
2019-01-22T13:12:57.915Z,15.80
2019-01-22T13:15:26.454Z,14.03
2019-01-22T13:17:54.918Z,15.40
2019-01-22T13:20:23.893Z,14.67
2019-01-22T13:22:52.358Z,10.50
2019-01-22T13:25:20.877Z,14.10
2019-01-22T13:27:49.372Z,14.10
2019-01-22T13:30:20.882Z,15.60
2019-01-22T13:32:49.732Z,12.63
2019-01-22T13:35:18.675Z,14.83
2019-01-22T13:37:47.135Z,13.80
2019-01-22T13:40:16.334Z,19.83
2019-01-22T13:42:44.894Z,21.00
2019-01-22T13:45:33.844Z,18.03
2019-01-22T13:48:04.863Z,16.00
2019-01-22T13:50:33.331Z,18.10
2019-01-22T13:53:01.872Z,16.50
2019-01-22T13:55:32.762Z,18.60
2019-01-22T13:58:01.248Z,25.93
2019-01-22T14:00:30.381Z,18.33
2019-01-22T14:03:00.705Z,19.53
2019-01-22T14:05:29.402Z,19.60
2019-01-22T14:07:57.942Z,18.30
2019-01-22T14:10:26.522Z,16.70
2019-01-22T14:12:56.608Z,21.03
2019-01-22T14:15:36.901Z,19.90
2019-01-22T14:18:06.197Z,18.10
2019-01-22T14:20:34.674Z,19.10
2019-01-22T14:23:03.189Z,18.97
2019-01-22T14:25:31.668Z,19.47
2019-01-22T14:28:00.124Z,18.30
2019-01-22T14:30:31.231Z,19.47
2019-01-22T14:32:59.691Z,21.60
2019-01-22T14:35:28.166Z,21.83
2019-01-22T14:37:56.911Z,19.80
2019-01-22T14:40:25.376Z,22.67
2019-01-22T14:42:53.916Z,22.60
2019-01-22T14:45:23.861Z,21.30
2019-01-22T14:47:52.388Z,20.97
2019-01-22T14:50:29.706Z,22.50
2019-01-22T14:52:58.176Z,21.50
2019-01-22T14:55:26.711Z,23.10
2019-01-22T14:57:55.311Z,23.70
2019-01-22T15:00:25.807Z,23.70
2019-01-22T15:02:54.910Z,26.33
2019-01-22T15:05:23.402Z,25.43
2019-01-22T15:07:51.882Z,24.30
2019-01-22T15:10:20.511Z,25.75
2019-01-22T15:12:55.046Z,29.45
2019-01-22T15:15:23.585Z,26.80
2019-01-22T15:17:52.046Z,26.83
2019-01-22T15:20:25.658Z,28.70
2019-01-22T15:22:54.123Z,25.93
2019-01-22T15:25:22.814Z,26.95
2019-01-22T15:27:51.473Z,27.45
2019-01-22T15:30:23.130Z,25.80
2019-01-22T15:32:51.670Z,23.87
2019-01-22T15:35:20.260Z,26.15
2019-01-22T15:37:48.888Z,23.83
2019-01-22T15:40:20.485Z,26.90
2019-01-22T15:42:49.150Z,28.27
2019-01-22T15:45:17.793Z,26.20
2019-01-22T15:47:46.348Z,26.20
2019-01-22T15:50:17.753Z,27.15
2019-01-22T15:52:46.324Z,27.93
2019-01-22T15:55:20.769Z,27.37
2019-01-22T15:57:49.426Z,35.00
2019-01-22T16:00:20.018Z,37.00
2019-01-22T16:02:48.701Z,33.35
2019-01-22T16:05:17.478Z,33.13
2019-01-22T16:07:46.037Z,33.13
2019-01-22T16:10:14.572Z,33.27
2019-01-22T16:12:43.170Z,31.77
2019-01-22T16:15:16.851Z,29.87
2019-01-22T16:17:45.459Z,30.12
2019-01-22T16:20:16.677Z,32.33
2019-01-22T16:22:45.229Z,34.18
2019-01-22T16:25:14.253Z,30.55
2019-01-22T16:27:42.873Z,32.98
2019-01-22T16:30:16.861Z,33.60
2019-01-22T16:32:45.411Z,32.55
2019-01-22T16:35:16.346Z,32.08
2019-01-22T16:37:45.957Z,31.42
2019-01-22T16:40:16.148Z,33.60
2019-01-22T16:42:45.445Z,30.70
2019-01-22T16:45:19.715Z,31.75
2019-01-22T16:47:48.276Z,34.18
2019-01-22T16:50:16.887Z,30.45
2019-01-22T16:52:45.521Z,33.23
2019-01-22T16:55:19.863Z,32.08
2019-01-22T16:57:48.452Z,35.58
2019-01-22T17:00:20.135Z,36.65
2019-01-22T17:02:48.746Z,34.95
2019-01-22T17:05:17.423Z,34.15
2019-01-22T17:07:45.990Z,34.67
2019-01-22T17:10:19.540Z,34.30
2019-01-22T17:12:48.373Z,34.50
2019-01-22T17:15:17.560Z,34.48
2019-01-22T17:17:46.485Z,35.38
2019-01-22T17:20:20.757Z,32.25
2019-01-22T17:22:49.319Z,33.98
2019-01-22T17:25:17.863Z,31.30
2019-01-22T17:27:46.439Z,30.82
2019-01-22T17:30:17.529Z,31.02
2019-01-22T17:32:47.720Z,31.68
2019-01-22T17:35:16.396Z,29.23
2019-01-22T17:37:45.049Z,29.65
2019-01-22T17:40:16.357Z,31.30
2019-01-22T17:42:45.296Z,30.17
2019-01-22T17:45:14.370Z,28.57
2019-01-22T17:47:42.932Z,29.72
2019-01-22T17:50:13.859Z,27.82
2019-01-22T17:52:42.427Z,25.90
2019-01-22T17:55:12.128Z,29.60
2019-01-22T17:57:40.722Z,30.25
2019-01-22T18:00:18.652Z,26.70
2019-01-22T18:02:47.243Z,29.45
2019-01-22T18:05:20.354Z,29.23
2019-01-22T18:07:48.972Z,26.10
2019-01-22T18:10:20.011Z,27.90
2019-01-22T18:12:49.009Z,30.02
2019-01-22T18:15:17.745Z,28.32
2019-01-22T18:17:46.407Z,26.35
2019-01-22T18:20:17.766Z,29.23
2019-01-22T18:22:46.322Z,29.85
2019-01-22T18:25:15.010Z,28.85
2019-01-22T18:27:43.560Z,26.73
2019-01-22T18:30:25.875Z,26.17
2019-01-22T18:32:54.708Z,28.23
2019-01-22T18:35:38.451Z,27.17
2019-01-22T18:38:07.064Z,31.45
2019-01-22T18:40:35.618Z,27.65
2019-01-22T18:43:04.205Z,27.90
2019-01-22T18:45:32.755Z,29.40
2019-01-22T18:48:02.324Z,27.82
2019-01-22T18:50:30.905Z,29.85
2019-01-22T18:52:59.458Z,28.35
2019-01-22T18:55:28.012Z,28.92
2019-01-22T18:57:56.778Z,27.22
2019-01-22T19:00:25.334Z,28.50
2019-01-22T19:02:53.897Z,25.25
2019-01-22T19:05:22.646Z,28.60
2019-01-22T19:07:51.285Z,29.75
2019-01-22T19:10:28.214Z,27.73
2019-01-22T19:12:56.822Z,26.25
2019-01-22T19:15:25.443Z,30.02
2019-01-22T19:17:54.045Z,30.35
2019-01-22T19:20:22.588Z,27.98
2019-01-22T19:22:51.157Z,28.10
2019-01-22T19:25:21.977Z,28.05
2019-01-22T19:27:50.535Z,27.93
2019-01-22T19:30:44.606Z,28.35
2019-01-22T19:33:13.161Z,26.75
2019-01-22T19:35:41.693Z,27.17
2019-01-22T19:38:10.287Z,25.43
2019-01-22T19:40:38.914Z,25.32
2019-01-22T19:43:07.469Z,27.62
2019-01-22T19:45:36.124Z,28.45
2019-01-22T19:48:05.254Z,25.00
2019-01-22T19:50:33.957Z,25.55
2019-01-22T19:53:02.619Z,27.35
2019-01-22T19:55:31.170Z,24.85
2019-01-22T19:57:59.717Z,27.90
2019-01-22T20:00:36.006Z,27.70
2019-01-22T20:03:05.496Z,23.85
2019-01-22T20:05:34.199Z,24.32
2019-01-22T20:08:02.856Z,29.12
2019-01-22T20:10:31.415Z,29.57
2019-01-22T20:13:00.139Z,27.30
2019-01-22T20:15:28.763Z,25.88
2019-01-22T20:17:57.296Z,28.32
2019-01-22T20:20:25.848Z,26.30
2019-01-22T20:22:54.435Z,26.37
2019-01-22T20:25:22.985Z,29.60
2019-01-22T20:27:51.530Z,25.62
2019-01-22T20:30:26.255Z,26.93
2019-01-22T20:32:54.816Z,26.25
2019-01-22T20:35:23.367Z,26.73
2019-01-22T20:37:52.390Z,26.42
2019-01-22T20:40:21.017Z,24.07
2019-01-22T20:42:49.556Z,24.75
2019-01-22T20:45:23.451Z,25.68
2019-01-22T20:47:52.000Z,26.95
2019-01-22T20:50:20.568Z,26.23
2019-01-22T20:52:49.340Z,28.30
2019-01-22T20:55:20.346Z,28.02
2019-01-22T20:57:54.836Z,26.50
2019-01-22T21:00:23.380Z,21.73
2019-01-22T21:02:52.010Z,25.95
2019-01-22T21:05:25.950Z,26.05
2019-01-22T21:07:54.595Z,22.50
2019-01-22T21:10:25.770Z,25.50
2019-01-22T21:12:54.397Z,24.90
2019-01-22T21:15:23.004Z,23.35
2019-01-22T21:17:51.553Z,21.62
2019-01-22T21:20:20.842Z,21.65
2019-01-22T21:22:49.482Z,24.25
2019-01-22T21:25:22.595Z,25.08
2019-01-22T21:27:51.203Z,24.05
2019-01-22T21:30:22.973Z,21.75
2019-01-22T21:32:51.520Z,24.60
2019-01-22T21:35:20.069Z,24.67
2019-01-22T21:37:48.651Z,24.05
2019-01-22T21:40:17.702Z,25.70
2019-01-22T21:42:46.316Z,24.12
2019-01-22T21:45:23.882Z,22.70
2019-01-22T21:47:52.434Z,25.08
2019-01-22T21:50:20.980Z,22.73
2019-01-22T21:52:49.587Z,23.57
2019-01-22T21:55:20.499Z,25.02
2019-01-22T21:57:49.065Z,21.57
2019-01-22T22:00:25.393Z,22.65
2019-01-22T22:02:54.022Z,18.42
2019-01-22T22:05:25.177Z,22.90
2019-01-22T22:07:53.946Z,22.20
2019-01-22T22:10:22.562Z,23.90
2019-01-22T22:12:51.179Z,21.77
2019-01-22T22:15:25.483Z,24.25
2019-01-22T22:17:54.039Z,21.65
2019-01-22T22:20:22.650Z,24.72
2019-01-22T22:22:52.713Z,22.62
2019-01-22T22:25:22.933Z,23.57
2019-01-22T22:27:51.753Z,22.45
2019-01-22T22:30:34.628Z,23.32
2019-01-22T22:33:03.258Z,22.52
2019-01-22T22:35:31.978Z,20.23
2019-01-22T22:38:00.545Z,20.68
2019-01-22T22:40:29.082Z,21.90
2019-01-22T22:42:57.659Z,22.10
2019-01-22T22:45:26.290Z,21.70
2019-01-22T22:47:54.919Z,22.65
2019-01-22T22:50:29.146Z,20.52
2019-01-22T22:52:57.702Z,23.62
2019-01-22T22:55:26.255Z,22.93
2019-01-22T22:57:55.024Z,21.75
2019-01-22T23:00:43.245Z,22.95
2019-01-22T23:03:12.180Z,21.90
2019-01-22T23:05:40.729Z,24.92
2019-01-22T23:08:09.276Z,26.48
2019-01-22T23:10:37.946Z,24.32
2019-01-22T23:13:06.573Z,23.75
2019-01-22T23:15:35.120Z,23.45
2019-01-22T23:18:03.932Z,26.12
2019-01-22T23:20:32.475Z,24.65
2019-01-22T23:23:01.029Z,26.55
2019-01-22T23:25:29.613Z,26.87
2019-01-22T23:27:58.167Z,25.37
2019-01-22T23:30:26.779Z,27.40
2019-01-22T23:32:55.364Z,28.57
2019-01-22T23:35:23.990Z,29.98
2019-01-22T23:37:52.534Z,28.30
2019-01-22T23:40:21.120Z,28.85
2019-01-22T23:42:49.666Z,26.20
2019-01-22T23:45:18.207Z,30.90
2019-01-22T23:47:46.816Z,32.13
2019-01-22T23:50:15.947Z,32.88
2019-01-22T23:52:44.509Z,37.00
2019-01-22T23:55:13.630Z,35.52
2019-01-22T23:57:42.184Z,31.73
